sensor_id;sensor_type;location;lat;lon;timestamp;temperature;humidity
47114;DHT22;32867;51.556;6.832;2023-04-24T00:04:45;11.80;99.90
47114;DHT22;32867;51.556;6.832;2023-04-24T00:09:45;11.70;99.90
47114;DHT22;32867;51.556;6.832;2023-04-24T00:14:46;11.30;99.90
47114;DHT22;32867;51.556;6.832;2023-04-24T00:19:47;11.40;99.90
47114;DHT22;32867;51.556;6.832;2023-04-24T00:24:48;11.30;99.90
47114;DHT22;32867;51.556;6.832;2023-04-24T00:29:49;11.10;99.90
47114;DHT22;32867;51.556;6.832;2023-04-24T00:34:49;11.20;99.90
47114;DHT22;32867;51.556;6.832;2023-04-24T00:39:50;11.20;99.90
47114;DHT22;32867;51.556;6.832;2023-04-24T00:44:51;11.20;99.90
47114;DHT22;32867;51.556;6.832;2023-04-24T00:49:51;11.20;99.90
47114;DHT22;32867;51.556;6.832;2023-04-24T00:54:53;11.00;99.90
47114;DHT22;32867;51.556;6.832;2023-04-24T00:59:54;11.00;99.90
47114;DHT22;32867;51.556;6.832;2023-04-24T01:04:55;10.80;99.90
47114;DHT22;32867;51.556;6.832;2023-04-24T01:09:56;10.80;99.90
47114;DHT22;32867;51.556;6.832;2023-04-24T01:14:56;10.80;99.90
47114;DHT22;32867;51.556;6.832;2023-04-24T01:19:58;10.90;99.90
47114;DHT22;32867;51.556;6.832;2023-04-24T01:24:58;10.90;99.90
47114;DHT22;32867;51.556;6.832;2023-04-24T01:29:59;10.60;99.90
47114;DHT22;32867;51.556;6.832;2023-04-24T01:35:00;10.30;99.90
47114;DHT22;32867;51.556;6.832;2023-04-24T01:40:02;10.30;99.90
47114;DHT22;32867;51.556;6.832;2023-04-24T01:45:04;10.10;99.90
47114;DHT22;32867;51.556;6.832;2023-04-24T01:50:06;10.30;99.90
47114;DHT22;32867;51.556;6.832;2023-04-24T01:55:07;10.30;99.90
47114;DHT22;32867;51.556;6.832;2023-04-24T02:00:08;10.30;99.90
47114;DHT22;32867;51.556;6.832;2023-04-24T02:05:15;10.40;99.90
47114;DHT22;32867;51.556;6.832;2023-04-24T02:10:15;10.30;99.90
47114;DHT22;32867;51.556;6.832;2023-04-24T02:15:16;10.30;99.90
47114;DHT22;32867;51.556;6.832;2023-04-24T02:20:18;10.10;99.90
47114;DHT22;32867;51.556;6.832;2023-04-24T02:25:19;10.20;99.90
47114;DHT22;32867;51.556;6.832;2023-04-24T02:30:20;10.20;99.90
47114;DHT22;32867;51.556;6.832;2023-04-24T02:35:21;10.30;99.90
47114;DHT22;32867;51.556;6.832;2023-04-24T02:40:22;10.30;99.90
47114;DHT22;32867;51.556;6.832;2023-04-24T02:45:22;10.20;99.90
47114;DHT22;32867;51.556;6.832;2023-04-24T02:50:23;10.20;99.90
47114;DHT22;32867;51.556;6.832;2023-04-24T02:55:23;10.30;99.90
47114;DHT22;32867;51.556;6.832;2023-04-24T03:00:24;10.10;99.90
47114;DHT22;32867;51.556;6.832;2023-04-24T03:05:25;9.90;99.90
47114;DHT22;32867;51.556;6.832;2023-04-24T03:10:27;10.00;99.90
47114;DHT22;32867;51.556;6.832;2023-04-24T03:15:28;10.10;99.90
47114;DHT22;32867;51.556;6.832;2023-04-24T03:20:29;9.90;99.90
47114;DHT22;32867;51.556;6.832;2023-04-24T03:25:32;9.80;99.90
47114;DHT22;32867;51.556;6.832;2023-04-24T03:30:32;10.10;99.90
47114;DHT22;32867;51.556;6.832;2023-04-24T03:35:34;10.30;99.90
47114;DHT22;32867;51.556;6.832;2023-04-24T03:40:41;10.20;99.90
47114;DHT22;32867;51.556;6.832;2023-04-24T03:45:56;10.10;99.90
47114;DHT22;32867;51.556;6.832;2023-04-24T03:50:58;10.10;99.90
47114;DHT22;32867;51.556;6.832;2023-04-24T03:55:58;10.30;99.90
47114;DHT22;32867;51.556;6.832;2023-04-24T04:01:00;10.20;99.90
47114;DHT22;32867;51.556;6.832;2023-04-24T04:06:30;10.30;99.90
47114;DHT22;32867;51.556;6.832;2023-04-24T04:11:35;9.80;99.90
47114;DHT22;32867;51.556;6.832;2023-04-24T04:16:35;9.90;99.90
47114;DHT22;32867;51.556;6.832;2023-04-24T04:21:40;10.00;99.90
47114;DHT22;32867;51.556;6.832;2023-04-24T04:26:57;10.00;99.90
47114;DHT22;32867;51.556;6.832;2023-04-24T04:32:18;10.10;99.90
47114;DHT22;32867;51.556;6.832;2023-04-24T04:37:19;10.30;99.90
47114;DHT22;32867;51.556;6.832;2023-04-24T04:42:26;10.30;99.90
47114;DHT22;32867;51.556;6.832;2023-04-24T04:47:28;10.00;99.90
47114;DHT22;32867;51.556;6.832;2023-04-24T04:52:31;10.10;99.90
47114;DHT22;32867;51.556;6.832;2023-04-24T04:57:41;9.90;99.90
47114;DHT22;32867;51.556;6.832;2023-04-24T05:02:42;10.00;99.90
47114;DHT22;32867;51.556;6.832;2023-04-24T05:07:43;10.20;99.90
47114;DHT22;32867;51.556;6.832;2023-04-24T05:12:44;10.10;99.90
47114;DHT22;32867;51.556;6.832;2023-04-24T05:17:45;10.00;99.90
47114;DHT22;32867;51.556;6.832;2023-04-24T05:22:48;10.00;99.90
47114;DHT22;32867;51.556;6.832;2023-04-24T05:27:50;10.00;99.90
47114;DHT22;32867;51.556;6.832;2023-04-24T05:32:52;9.80;99.90
47114;DHT22;32867;51.556;6.832;2023-04-24T05:37:53;9.80;99.90
47114;DHT22;32867;51.556;6.832;2023-04-24T05:42:54;9.80;99.90
47114;DHT22;32867;51.556;6.832;2023-04-24T05:47:55;9.60;99.90
47114;DHT22;32867;51.556;6.832;2023-04-24T05:52:56;9.60;99.90
47114;DHT22;32867;51.556;6.832;2023-04-24T05:58:07;9.90;99.90
47114;DHT22;32867;51.556;6.832;2023-04-24T06:03:09;9.60;99.90
47114;DHT22;32867;51.556;6.832;2023-04-24T06:08:10;9.70;99.90
47114;DHT22;32867;51.556;6.832;2023-04-24T06:13:13;9.60;99.90
47114;DHT22;32867;51.556;6.832;2023-04-24T06:18:22;9.80;99.90
47114;DHT22;32867;51.556;6.832;2023-04-24T06:23:23;9.30;99.90
47114;DHT22;32867;51.556;6.832;2023-04-24T06:28:23;9.30;99.90
47114;DHT22;32867;51.556;6.832;2023-04-24T06:33:26;9.40;99.90
47114;DHT22;32867;51.556;6.832;2023-04-24T06:38:27;9.50;99.90
47114;DHT22;32867;51.556;6.832;2023-04-24T06:43:27;9.60;99.90
47114;DHT22;32867;51.556;6.832;2023-04-24T06:48:28;9.50;99.90
47114;DHT22;32867;51.556;6.832;2023-04-24T06:53:29;9.50;99.90
47114;DHT22;32867;51.556;6.832;2023-04-24T06:58:30;9.70;99.90
47114;DHT22;32867;51.556;6.832;2023-04-24T07:03:31;9.60;99.90
47114;DHT22;32867;51.556;6.832;2023-04-24T07:08:31;9.70;99.90
47114;DHT22;32867;51.556;6.832;2023-04-24T07:13:33;9.40;99.90
47114;DHT22;32867;51.556;6.832;2023-04-24T07:18:35;9.10;99.90
47114;DHT22;32867;51.556;6.832;2023-04-24T07:23:37;9.00;99.90
47114;DHT22;32867;51.556;6.832;2023-04-24T07:28:37;9.40;99.90
47114;DHT22;32867;51.556;6.832;2023-04-24T07:33:38;9.30;99.90
47114;DHT22;32867;51.556;6.832;2023-04-24T07:38:38;8.90;99.90
47114;DHT22;32867;51.556;6.832;2023-04-24T07:43:39;8.90;99.90
47114;DHT22;32867;51.556;6.832;2023-04-24T07:48:40;8.70;99.90
47114;DHT22;32867;51.556;6.832;2023-04-24T07:53:42;8.90;99.90
47114;DHT22;32867;51.556;6.832;2023-04-24T07:58:43;8.70;99.90
47114;DHT22;32867;51.556;6.832;2023-04-24T08:03:43;8.50;99.90
47114;DHT22;32867;51.556;6.832;2023-04-24T08:08:44;8.60;99.90
47114;DHT22;32867;51.556;6.832;2023-04-24T08:13:45;8.80;99.90
47114;DHT22;32867;51.556;6.832;2023-04-24T08:18:45;8.70;99.90
47114;DHT22;32867;51.556;6.832;2023-04-24T08:23:46;8.00;99.90
47114;DHT22;32867;51.556;6.832;2023-04-24T08:28:47;8.00;99.90
47114;DHT22;32867;51.556;6.832;2023-04-24T08:33:47;7.90;99.90
47114;DHT22;32867;51.556;6.832;2023-04-24T08:38:48;8.00;99.90
47114;DHT22;32867;51.556;6.832;2023-04-24T08:43:48;8.20;99.90
47114;DHT22;32867;51.556;6.832;2023-04-24T08:48:50;8.10;99.90
47114;DHT22;32867;51.556;6.832;2023-04-24T08:53:53;8.40;99.90
47114;DHT22;32867;51.556;6.832;2023-04-24T08:58:55;8.70;99.90
47114;DHT22;32867;51.556;6.832;2023-04-24T09:03:56;8.60;99.90
47114;DHT22;32867;51.556;6.832;2023-04-24T09:09:01;8.60;99.90
47114;DHT22;32867;51.556;6.832;2023-04-24T09:14:02;8.70;99.90
47114;DHT22;32867;51.556;6.832;2023-04-24T09:19:04;8.70;99.90
47114;DHT22;32867;51.556;6.832;2023-04-24T09:24:08;8.60;99.90
47114;DHT22;32867;51.556;6.832;2023-04-24T09:29:18;8.60;99.90
47114;DHT22;32867;51.556;6.832;2023-04-24T09:34:23;8.30;99.90
47114;DHT22;32867;51.556;6.832;2023-04-24T09:39:24;8.20;99.90
47114;DHT22;32867;51.556;6.832;2023-04-24T09:44:26;8.20;99.90
47114;DHT22;32867;51.556;6.832;2023-04-24T09:49:28;8.10;99.90
47114;DHT22;32867;51.556;6.832;2023-04-24T09:54:29;8.00;99.90
47114;DHT22;32867;51.556;6.832;2023-04-24T09:59:30;8.00;99.90
47114;DHT22;32867;51.556;6.832;2023-04-24T10:04:31;8.00;99.90
47114;DHT22;32867;51.556;6.832;2023-04-24T10:09:31;8.20;99.90
47114;DHT22;32867;51.556;6.832;2023-04-24T10:14:32;8.10;99.90
47114;DHT22;32867;51.556;6.832;2023-04-24T10:19:33;8.30;99.90
47114;DHT22;32867;51.556;6.832;2023-04-24T10:24:36;8.30;99.90
47114;DHT22;32867;51.556;6.832;2023-04-24T10:29:38;8.40;99.90
47114;DHT22;32867;51.556;6.832;2023-04-24T10:34:40;8.20;99.90
47114;DHT22;32867;51.556;6.832;2023-04-24T10:39:41;8.20;99.90
47114;DHT22;32867;51.556;6.832;2023-04-24T10:44:42;8.40;99.90
47114;DHT22;32867;51.556;6.832;2023-04-24T10:49:43;8.40;99.90
47114;DHT22;32867;51.556;6.832;2023-04-24T10:54:47;8.40;99.90
47114;DHT22;32867;51.556;6.832;2023-04-24T11:00:14;8.50;99.90
47114;DHT22;32867;51.556;6.832;2023-04-24T11:05:19;8.60;99.90
47114;DHT22;32867;51.556;6.832;2023-04-24T11:10:26;8.80;99.90
47114;DHT22;32867;51.556;6.832;2023-04-24T11:15:27;9.20;99.90
47114;DHT22;32867;51.556;6.832;2023-04-24T11:20:29;9.50;99.90
47114;DHT22;32867;51.556;6.832;2023-04-24T11:25:31;9.30;99.90
47114;DHT22;32867;51.556;6.832;2023-04-24T11:30:33;9.40;99.90
47114;DHT22;32867;51.556;6.832;2023-04-24T11:35:40;9.50;99.90
47114;DHT22;32867;51.556;6.832;2023-04-24T11:40:41;9.20;99.90
47114;DHT22;32867;51.556;6.832;2023-04-24T11:45:48;9.30;99.90
47114;DHT22;32867;51.556;6.832;2023-04-24T11:50:49;9.10;99.90
47114;DHT22;32867;51.556;6.832;2023-04-24T11:55:50;9.30;99.90
47114;DHT22;32867;51.556;6.832;2023-04-24T12:00:56;9.30;99.90
47114;DHT22;32867;51.556;6.832;2023-04-24T12:06:08;9.50;99.90
47114;DHT22;32867;51.556;6.832;2023-04-24T12:11:09;9.50;99.90
47114;DHT22;32867;51.556;6.832;2023-04-24T12:16:10;9.30;99.90
47114;DHT22;32867;51.556;6.832;2023-04-24T12:21:21;9.10;99.90
47114;DHT22;32867;51.556;6.832;2023-04-24T12:26:22;9.10;99.90
47114;DHT22;32867;51.556;6.832;2023-04-24T12:31:23;9.00;99.90
47114;DHT22;32867;51.556;6.832;2023-04-24T12:36:24;9.30;99.90
47114;DHT22;32867;51.556;6.832;2023-04-24T12:41:24;9.50;99.90
47114;DHT22;32867;51.556;6.832;2023-04-24T12:46:25;9.50;99.90
47114;DHT22;32867;51.556;6.832;2023-04-24T12:51:26;9.60;99.90
47114;DHT22;32867;51.556;6.832;2023-04-24T12:56:27;9.60;99.90
47114;DHT22;32867;51.556;6.832;2023-04-24T13:01:27;9.60;99.90
47114;DHT22;32867;51.556;6.832;2023-04-24T13:06:28;9.60;99.90
47114;DHT22;32867;51.556;6.832;2023-04-24T13:11:29;9.50;99.90
47114;DHT22;32867;51.556;6.832;2023-04-24T13:16:29;9.70;99.90
47114;DHT22;32867;51.556;6.832;2023-04-24T13:21:31;9.50;99.90
47114;DHT22;32867;51.556;6.832;2023-04-24T13:26:32;9.60;99.90
47114;DHT22;32867;51.556;6.832;2023-04-24T13:31:32;9.60;99.90
47114;DHT22;32867;51.556;6.832;2023-04-24T13:36:33;9.60;99.90
47114;DHT22;32867;51.556;6.832;2023-04-24T13:41:34;9.70;99.90
47114;DHT22;32867;51.556;6.832;2023-04-24T13:46:35;10.00;99.90
47114;DHT22;32867;51.556;6.832;2023-04-24T13:51:36;10.00;99.90
47114;DHT22;32867;51.556;6.832;2023-04-24T13:56:37;10.10;99.90
47114;DHT22;32867;51.556;6.832;2023-04-24T14:01:37;10.30;99.90
47114;DHT22;32867;51.556;6.832;2023-04-24T14:06:38;10.00;99.90
47114;DHT22;32867;51.556;6.832;2023-04-24T14:11:38;9.90;99.90
47114;DHT22;32867;51.556;6.832;2023-04-24T14:16:39;9.90;99.90
47114;DHT22;32867;51.556;6.832;2023-04-24T14:21:40;9.50;99.90
47114;DHT22;32867;51.556;6.832;2023-04-24T14:26:40;9.40;99.90
47114;DHT22;32867;51.556;6.832;2023-04-24T14:31:42;8.80;99.90
47114;DHT22;32867;51.556;6.832;2023-04-24T14:36:43;8.60;99.90
47114;DHT22;32867;51.556;6.832;2023-04-24T14:41:43;8.60;99.90
47114;DHT22;32867;51.556;6.832;2023-04-24T14:46:44;8.90;99.90
47114;DHT22;32867;51.556;6.832;2023-04-24T14:51:45;9.10;99.90
47114;DHT22;32867;51.556;6.832;2023-04-24T14:56:45;9.20;99.90
47114;DHT22;32867;51.556;6.832;2023-04-24T15:01:46;9.50;99.90
47114;DHT22;32867;51.556;6.832;2023-04-24T15:06:46;9.80;99.90
47114;DHT22;32867;51.556;6.832;2023-04-24T15:11:48;9.90;99.90
47114;DHT22;32867;51.556;6.832;2023-04-24T15:16:49;9.80;99.90
47114;DHT22;32867;51.556;6.832;2023-04-24T15:21:50;9.70;99.90
47114;DHT22;32867;51.556;6.832;2023-04-24T15:26:50;9.90;99.90
47114;DHT22;32867;51.556;6.832;2023-04-24T15:31:51;10.00;99.90
47114;DHT22;32867;51.556;6.832;2023-04-24T15:36:52;10.10;99.90
47114;DHT22;32867;51.556;6.832;2023-04-24T15:41:52;10.10;99.90
47114;DHT22;32867;51.556;6.832;2023-04-24T15:46:54;10.00;99.90
47114;DHT22;32867;51.556;6.832;2023-04-24T15:51:55;10.30;99.90
47114;DHT22;32867;51.556;6.832;2023-04-24T15:56:56;10.50;99.90
47114;DHT22;32867;51.556;6.832;2023-04-24T16:01:57;10.50;99.90
47114;DHT22;32867;51.556;6.832;2023-04-24T16:06:58;11.20;99.90
47114;DHT22;32867;51.556;6.832;2023-04-24T16:11:58;11.80;99.90
47114;DHT22;32867;51.556;6.832;2023-04-24T16:16:59;11.20;99.90
47114;DHT22;32867;51.556;6.832;2023-04-24T16:22:02;10.50;99.90
47114;DHT22;32867;51.556;6.832;2023-04-24T16:27:03;10.30;99.90
47114;DHT22;32867;51.556;6.832;2023-04-24T16:32:04;10.10;99.90
47114;DHT22;32867;51.556;6.832;2023-04-24T16:37:04;9.90;99.90
47114;DHT22;32867;51.556;6.832;2023-04-24T16:42:06;9.80;99.90
47114;DHT22;32867;51.556;6.832;2023-04-24T16:47:10;9.10;99.90
47114;DHT22;32867;51.556;6.832;2023-04-24T16:52:12;8.70;99.90
47114;DHT22;32867;51.556;6.832;2023-04-24T16:57:14;8.70;99.90
47114;DHT22;32867;51.556;6.832;2023-04-24T17:02:14;8.80;99.90
47114;DHT22;32867;51.556;6.832;2023-04-24T17:07:15;9.00;99.90
47114;DHT22;32867;51.556;6.832;2023-04-24T17:12:17;9.30;99.90
47114;DHT22;32867;51.556;6.832;2023-04-24T17:17:17;9.10;99.90
47114;DHT22;32867;51.556;6.832;2023-04-24T17:22:20;9.40;99.90
47114;DHT22;32867;51.556;6.832;2023-04-24T17:27:21;10.70;99.90
47114;DHT22;32867;51.556;6.832;2023-04-24T17:32:21;13.30;99.90
47114;DHT22;32867;51.556;6.832;2023-04-24T17:37:22;13.90;96.70
47114;DHT22;32867;51.556;6.832;2023-04-24T17:42:24;13.50;98.00
47114;DHT22;32867;51.556;6.832;2023-04-24T17:47:24;14.20;95.00
47114;DHT22;32867;51.556;6.832;2023-04-24T17:52:26;12.40;97.10
47114;DHT22;32867;51.556;6.832;2023-04-24T17:57:27;13.00;96.80
47114;DHT22;32867;51.556;6.832;2023-04-24T18:02:28;13.30;96.60
47114;DHT22;32867;51.556;6.832;2023-04-24T18:07:28;13.80;95.90
47114;DHT22;32867;51.556;6.832;2023-04-24T18:12:29;11.70;99.40
47114;DHT22;32867;51.556;6.832;2023-04-24T18:17:30;10.30;99.90
47114;DHT22;32867;51.556;6.832;2023-04-24T18:22:31;10.30;99.90
47114;DHT22;32867;51.556;6.832;2023-04-24T18:27:32;10.20;99.90
47114;DHT22;32867;51.556;6.832;2023-04-24T18:32:33;9.70;99.90
47114;DHT22;32867;51.556;6.832;2023-04-24T18:37:34;9.20;99.90
47114;DHT22;32867;51.556;6.832;2023-04-24T18:42:34;9.20;99.90
47114;DHT22;32867;51.556;6.832;2023-04-24T18:47:35;9.20;99.90
47114;DHT22;32867;51.556;6.832;2023-04-24T18:52:36;9.10;99.90
47114;DHT22;32867;51.556;6.832;2023-04-24T18:57:36;9.00;99.90
47114;DHT22;32867;51.556;6.832;2023-04-24T19:02:37;8.80;99.90
47114;DHT22;32867;51.556;6.832;2023-04-24T19:07:38;8.80;99.90
47114;DHT22;32867;51.556;6.832;2023-04-24T19:12:39;8.80;99.90
47114;DHT22;32867;51.556;6.832;2023-04-24T19:17:39;8.70;99.90
47114;DHT22;32867;51.556;6.832;2023-04-24T19:22:40;8.60;99.90
47114;DHT22;32867;51.556;6.832;2023-04-24T19:27:41;8.60;99.90
47114;DHT22;32867;51.556;6.832;2023-04-24T19:32:42;8.40;99.90
47114;DHT22;32867;51.556;6.832;2023-04-24T19:37:42;8.40;99.90
47114;DHT22;32867;51.556;6.832;2023-04-24T19:42:43;8.20;99.90
47114;DHT22;32867;51.556;6.832;2023-04-24T19:47:45;8.20;99.90
47114;DHT22;32867;51.556;6.832;2023-04-24T19:52:46;8.20;99.90
47114;DHT22;32867;51.556;6.832;2023-04-24T19:57:47;8.20;99.90
47114;DHT22;32867;51.556;6.832;2023-04-24T20:02:47;8.10;99.90
47114;DHT22;32867;51.556;6.832;2023-04-24T20:07:48;8.10;99.90
47114;DHT22;32867;51.556;6.832;2023-04-24T20:12:50;8.00;99.90
47114;DHT22;32867;51.556;6.832;2023-04-24T20:17:51;8.00;99.90
47114;DHT22;32867;51.556;6.832;2023-04-24T20:22:52;7.90;99.90
47114;DHT22;32867;51.556;6.832;2023-04-24T20:27:52;7.80;99.90
47114;DHT22;32867;51.556;6.832;2023-04-24T20:32:53;7.80;99.90
47114;DHT22;32867;51.556;6.832;2023-04-24T20:37:53;7.70;99.90
47114;DHT22;32867;51.556;6.832;2023-04-24T20:42:54;7.70;99.90
47114;DHT22;32867;51.556;6.832;2023-04-24T20:47:56;7.50;99.90
47114;DHT22;32867;51.556;6.832;2023-04-24T20:52:57;7.40;99.90
47114;DHT22;32867;51.556;6.832;2023-04-24T20:57:58;7.40;99.90
47114;DHT22;32867;51.556;6.832;2023-04-24T21:02:59;7.30;99.90
47114;DHT22;32867;51.556;6.832;2023-04-24T21:08:00;7.30;99.90
47114;DHT22;32867;51.556;6.832;2023-04-24T21:13:01;7.20;99.90
47114;DHT22;32867;51.556;6.832;2023-04-24T21:18:01;7.20;99.90
47114;DHT22;32867;51.556;6.832;2023-04-24T21:23:02;7.20;99.90
47114;DHT22;32867;51.556;6.832;2023-04-24T21:28:03;7.10;99.90
47114;DHT22;32867;51.556;6.832;2023-04-24T21:33:04;7.00;99.90
47114;DHT22;32867;51.556;6.832;2023-04-24T21:38:05;7.10;99.90
47114;DHT22;32867;51.556;6.832;2023-04-24T21:43:05;7.10;99.90
47114;DHT22;32867;51.556;6.832;2023-04-24T21:48:06;6.90;99.90
47114;DHT22;32867;51.556;6.832;2023-04-24T21:53:06;6.80;99.90
47114;DHT22;32867;51.556;6.832;2023-04-24T21:58:07;6.70;99.90
47114;DHT22;32867;51.556;6.832;2023-04-24T22:03:08;6.60;99.90
47114;DHT22;32867;51.556;6.832;2023-04-24T22:08:08;6.70;99.90
47114;DHT22;32867;51.556;6.832;2023-04-24T22:13:09;6.70;99.90
47114;DHT22;32867;51.556;6.832;2023-04-24T22:18:10;6.50;99.90
47114;DHT22;32867;51.556;6.832;2023-04-24T22:23:12;6.50;99.90
47114;DHT22;32867;51.556;6.832;2023-04-24T22:28:12;6.50;99.90
47114;DHT22;32867;51.556;6.832;2023-04-24T22:33:13;6.50;99.90
47114;DHT22;32867;51.556;6.832;2023-04-24T22:38:14;6.60;99.90
47114;DHT22;32867;51.556;6.832;2023-04-24T22:43:14;6.50;99.90
47114;DHT22;32867;51.556;6.832;2023-04-24T22:48:16;6.50;99.90
47114;DHT22;32867;51.556;6.832;2023-04-24T22:53:18;6.50;99.90
47114;DHT22;32867;51.556;6.832;2023-04-24T22:58:18;6.50;99.90
47114;DHT22;32867;51.556;6.832;2023-04-24T23:03:19;6.50;99.90
47114;DHT22;32867;51.556;6.832;2023-04-24T23:08:20;6.50;99.90
47114;DHT22;32867;51.556;6.832;2023-04-24T23:13:20;6.40;99.90
47114;DHT22;32867;51.556;6.832;2023-04-24T23:18:21;6.40;99.90
47114;DHT22;32867;51.556;6.832;2023-04-24T23:23:22;6.40;99.90
47114;DHT22;32867;51.556;6.832;2023-04-24T23:28:23;6.40;99.90
47114;DHT22;32867;51.556;6.832;2023-04-24T23:33:23;6.40;99.90
47114;DHT22;32867;51.556;6.832;2023-04-24T23:38:24;6.40;99.90
47114;DHT22;32867;51.556;6.832;2023-04-24T23:43:25;6.60;99.90
47114;DHT22;32867;51.556;6.832;2023-04-24T23:48:26;6.50;99.90
47114;DHT22;32867;51.556;6.832;2023-04-24T23:53:26;6.60;99.90
47114;DHT22;32867;51.556;6.832;2023-04-24T23:58:28;6.70;99.90
